Time;durP1;ratioP1;P1;durP2;ratioP2;P2;SDS_P1;SDS_P2;PMS_P1;PMS_P2;Temp;Humidity;BMP_temperature;BMP_pressure;BME280_temperature;BME280_humidity;BME280_pressure;Samples;Min_cycle;Max_cycle;Signal;HPM_P1;HPM_P2
2023/01/27 00:04:17;;;;;;;1.40;0.98;;;;;;;3.02;nan;102346.75;9866871;29;20052;-81
2023/01/27 00:09:18;;;;;;;1.30;1.15;;;;;;;3.04;nan;102354.63;9853158;29;20060;-79
2023/01/27 00:14:20;;;;;;;0.98;0.82;;;;;;;3.07;nan;102347.97;9852541;29;20048;-78
2023/01/27 00:19:22;;;;;;;0.55;0.55;;;;;;;3.08;nan;102342.00;9861635;30;20067;-79
2023/01/27 00:24:35;;;;;;;1.13;0.80;;;;;;;3.06;nan;102345.28;9858532;29;20467;-79
2023/01/27 00:29:40;;;;;;;2.00;1.35;;;;;;;3.06;nan;102347.88;9866207;29;20056;-78
2023/01/27 00:34:42;;;;;;;1.30;1.05;;;;;;;3.08;nan;102347.19;9869252;29;20052;-79
2023/01/27 00:39:43;;;;;;;2.15;1.42;;;;;;;3.10;nan;102352.47;9866024;29;20101;-81
2023/01/27 00:45:47;;;;;;;2.72;1.20;;;;;;;3.08;nan;102351.44;9868563;29;20056;-78
2023/01/27 00:50:07;;;;;;;0.98;0.70;;;;;;;3.11;nan;102356.88;9864683;30;20066;-79
2023/01/27 00:55:14;;;;;;;0.32;0.32;;;;;;;3.11;nan;102362.06;9849283;30;20067;-79
2023/01/27 01:00:17;;;;;;;0.57;0.57;;;;;;;3.13;nan;102350.09;9858466;30;20426;-79
2023/01/27 01:05:19;;;;;;;0.68;0.40;;;;;;;3.12;nan;102366.41;9864894;30;20090;-80
2023/01/27 01:10:21;;;;;;;2.28;1.38;;;;;;;3.12;nan;102369.00;9866554;30;20058;-81
2023/01/27 01:15:22;;;;;;;0.70;0.50;;;;;;;3.14;nan;102377.81;9857784;30;20868;-79
2023/01/27 01:20:24;;;;;;;1.40;0.60;;;;;;;3.16;nan;102381.41;9870323;29;20116;-80
2023/01/27 01:25:26;;;;;;;0.45;0.43;;;;;;;3.17;nan;102381.50;9841127;30;20078;-80
2023/01/27 01:30:29;;;;;;;1.23;0.75;;;;;;;3.20;nan;102388.59;9848386;30;20544;-82
2023/01/27 01:35:31;;;;;;;0.57;0.50;;;;;;;3.17;nan;102388.38;9844464;30;20145;-80
2023/01/27 01:40:32;;;;;;;2.08;0.85;;;;;;;3.19;nan;102391.97;9879378;29;20055;-79
2023/01/27 01:45:46;;;;;;;1.08;0.50;;;;;;;3.17;nan;102388.38;9867524;30;20040;-80
2023/01/27 01:50:52;;;;;;;0.30;0.30;;;;;;;3.19;nan;102394.56;9865583;29;20597;-80
2023/01/27 01:55:57;;;;;;;0.52;0.30;;;;;;;3.21;nan;102389.50;9847972;30;20051;-80
2023/01/27 02:00:59;;;;;;;0.47;0.47;;;;;;;3.22;nan;102394.78;9868900;29;20052;-79
2023/01/27 02:06:01;;;;;;;0.32;0.32;;;;;;;3.21;nan;102394.66;9861694;30;20079;-80
2023/01/27 02:11:03;;;;;;;0.25;0.22;;;;;;;3.22;nan;102386.13;9864499;30;20107;-79
2023/01/27 02:16:07;;;;;;;0.52;0.43;;;;;;;3.22;nan;102392.19;9845026;30;20053;-79
2023/01/27 02:21:08;;;;;;;0.20;0.20;;;;;;;3.26;nan;102390.72;9853611;30;20421;-80
2023/01/27 02:26:23;;;;;;;0.40;0.40;;;;;;;3.24;nan;102390.59;9856688;30;20131;-80
2023/01/27 02:31:26;;;;;;;0.20;0.20;;;;;;;3.26;nan;102394.22;9855612;30;20048;-80
2023/01/27 02:36:32;;;;;;;0.20;0.20;;;;;;;3.27;nan;102408.06;9849033;30;20051;-79
2023/01/27 02:41:39;;;;;;;0.60;0.50;;;;;;;3.27;nan;102408.06;9854856;30;20067;-80
2023/01/27 02:46:41;;;;;;;0.60;0.60;;;;;;;3.21;nan;102400.72;9852165;30;20063;-80
2023/01/27 02:51:42;;;;;;;0.35;0.35;;;;;;;3.17;nan;102409.09;9847280;30;20667;-80
2023/01/27 02:56:44;;;;;;;1.38;0.47;;;;;;;3.08;nan;102411.91;9850721;30;20064;-80
2023/01/27 03:01:49;;;;;;;0.73;0.40;;;;;;;3.03;nan;102421.00;9850526;30;20060;-81
2023/01/27 03:06:51;;;;;;;0.30;0.30;;;;;;;2.97;nan;102418.88;9841712;30;20112;-79
2023/01/27 03:22:33;;;;;;;0.75;0.60;;;;;;;2.79;nan;102421.00;9867827;30;20145;-79
2023/01/27 03:27:35;;;;;;;1.05;0.43;;;;;;;2.75;nan;102424.13;9872153;29;20047;-82
2023/01/27 03:33:12;;;;;;;0.10;0.10;;;;;;;2.73;nan;102429.97;9884972;29;20127;-80
2023/01/27 03:49:13;;;;;;;0.30;0.30;;;;;;;2.51;nan;102448.13;9829252;29;20729;-82
2023/01/27 03:54:14;;;;;;;0.30;0.30;;;;;;;2.47;nan;102441.81;9834057;29;20064;-82
2023/01/27 03:59:16;;;;;;;0.20;0.20;;;;;;;2.42;nan;102453.53;9837836;29;20048;-82
2023/01/27 04:09:39;;;;;;;0.32;0.32;;;;;;;2.30;nan;102462.13;9842912;29;20088;-84
2023/01/27 04:14:41;;;;;;;1.50;0.63;;;;;;;2.25;nan;102454.78;9847391;29;20570;-83
2023/01/27 04:19:44;;;;;;;2.20;1.48;;;;;;;2.22;nan;102459.72;9842424;29;20432;-83
2023/01/27 04:24:45;;;;;;;0.40;0.38;;;;;;;2.21;nan;102463.09;9841056;30;20058;-81
2023/01/27 04:29:47;;;;;;;0.35;0.25;;;;;;;2.14;nan;102465.97;9841853;29;20052;-83
2023/01/27 04:34:48;;;;;;;0.15;0.15;;;;;;;2.12;nan;102478.78;9840820;29;20073;-82
2023/01/27 04:39:50;;;;;;;0.35;0.30;;;;;;;2.12;nan;102463.28;9839907;29;20055;-83
2023/01/27 04:44:52;;;;;;;0.30;0.30;;;;;;;2.12;nan;102474.50;9845966;29;20088;-83
2023/01/27 04:49:53;;;;;;;8.20;0.57;;;;;;;2.14;nan;102471.16;9843482;30;20471;-82
2023/01/27 04:54:55;;;;;;;0.20;0.20;;;;;;;2.09;nan;102478.53;9844748;29;20044;-83
2023/01/27 04:59:57;;;;;;;0.32;0.32;;;;;;;2.08;nan;102481.91;9834899;29;20110;-83
2023/01/27 05:04:58;;;;;;;0.25;0.25;;;;;;;2.09;nan;102488.88;9850003;30;20055;-83
2023/01/27 05:10:21;;;;;;;0.30;0.30;;;;;;;2.08;nan;102492.25;9846959;29;20115;-85
2023/01/27 05:15:22;;;;;;;0.15;0.15;;;;;;;2.08;nan;102493.13;9824839;30;20053;-83
2023/01/27 05:20:25;;;;;;;0.45;0.32;;;;;;;2.11;nan;102497.66;9843369;30;20114;-84
2023/01/27 05:25:26;;;;;;;0.30;0.30;;;;;;;2.10;nan;102496.75;9833120;30;20503;-83
2023/01/27 05:30:28;;;;;;;0.30;0.30;;;;;;;2.09;nan;102504.38;9846070;30;20082;-83
2023/01/27 05:35:34;;;;;;;0.32;0.32;;;;;;;2.10;nan;102508.75;9858280;30;20464;-84
2023/01/27 05:40:36;;;;;;;0.22;0.22;;;;;;;2.09;nan;102520.78;9868574;29;20060;-83
2023/01/27 05:45:37;;;;;;;0.35;0.25;;;;;;;2.08;nan;102507.75;9867555;29;20060;-83
2023/01/27 05:50:39;;;;;;;0.90;0.57;;;;;;;2.04;nan;102519.53;9858194;29;20442;-83
2023/01/27 05:55:42;;;;;;;0.52;0.52;;;;;;;2.00;nan;102525.22;9839870;30;20060;-82
2023/01/27 06:00:44;;;;;;;3.22;1.35;;;;;;;1.99;nan;102517.34;9855278;30;20060;-83
2023/01/27 06:05:56;;;;;;;0.38;0.17;;;;;;;1.90;nan;102507.19;9857365;29;20081;-83
2023/01/27 06:10:58;;;;;;;0.32;0.32;;;;;;;1.83;nan;102521.31;9848474;30;20059;-82
2023/01/27 06:16:02;;;;;;;0.38;0.38;;;;;;;1.79;nan;102514.09;9858840;30;20062;-82
2023/01/27 06:21:05;;;;;;;0.85;0.60;;;;;;;1.76;nan;102544.84;9859234;29;20510;-85
2023/01/27 06:26:12;;;;;;;0.13;0.13;;;;;;;1.80;nan;102540.81;9850038;30;20047;-82
2023/01/27 06:31:17;;;;;;;0.22;0.22;;;;;;;1.86;nan;102557.72;9857047;30;20056;-83
2023/01/27 06:36:20;;;;;;;0.43;0.30;;;;;;;1.89;nan;102562.19;9844799;30;20059;-81
2023/01/27 06:41:23;;;;;;;0.45;0.40;;;;;;;1.91;nan;102551.22;9844528;30;20056;-83
2023/01/27 06:46:25;;;;;;;0.55;0.43;;;;;;;1.94;nan;102554.06;9842799;30;20475;-83
2023/01/27 06:51:27;;;;;;;0.35;0.35;;;;;;;1.99;nan;102567.34;9833573;30;20056;-82
2023/01/27 06:56:28;;;;;;;0.70;0.55;;;;;;;2.02;nan;102554.66;9840288;30;20048;-82
2023/01/27 07:01:30;;;;;;;0.73;0.60;;;;;;;2.02;nan;102570.16;9842824;30;20071;-82
2023/01/27 07:06:32;;;;;;;0.43;0.43;;;;;;;2.05;nan;102585.03;9849165;30;20505;-84
2023/01/27 07:11:33;;;;;;;1.40;0.50;;;;;;;2.10;nan;102599.19;9851179;30;20070;-83
2023/01/27 07:16:35;;;;;;;1.30;0.75;;;;;;;2.08;nan;102605.94;9855334;30;20044;-81
2023/01/27 07:21:37;;;;;;;0.57;0.55;;;;;;;2.10;nan;102612.13;9856280;30;20059;-83
2023/01/27 07:26:39;;;;;;;1.13;0.65;;;;;;;2.08;nan;102608.53;9836154;29;20095;-81
2023/01/27 07:31:43;;;;;;;0.28;0.28;;;;;;;2.10;nan;102613.06;9844578;30;20052;-83
2023/01/27 07:36:45;;;;;;;1.17;0.55;;;;;;;2.14;nan;102628.81;9855962;29;20058;-83
2023/01/27 07:41:48;;;;;;;0.82;0.57;;;;;;;2.14;nan;102633.97;9848687;30;20109;-83
2023/01/27 07:46:49;;;;;;;1.23;0.80;;;;;;;2.16;nan;102633.28;9863772;30;20078;-82
2023/01/27 07:51:51;;;;;;;0.40;0.40;;;;;;;2.18;nan;102630.84;9852346;30;20059;-82
2023/01/27 07:56:53;;;;;;;0.85;0.75;;;;;;;2.23;nan;102634.72;9856560;30;20117;-81
2023/01/27 08:01:54;;;;;;;0.65;0.55;;;;;;;2.25;nan;102641.81;9843361;30;20055;-82
2023/01/27 08:06:56;;;;;;;0.47;0.47;;;;;;;2.26;nan;102641.00;9869192;30;20577;-81
2023/01/27 08:11:58;;;;;;;0.43;0.30;;;;;;;2.28;nan;102654.06;9855709;30;20097;-82
2023/01/27 08:17:00;;;;;;;0.70;0.50;;;;;;;2.24;nan;102646.88;9857270;30;20082;-82
2023/01/27 08:22:02;;;;;;;0.28;0.28;;;;;;;2.27;nan;102645.41;9853482;30;20055;-82
2023/01/27 08:27:03;;;;;;;4.95;1.85;;;;;;;2.30;nan;102650.84;9851408;30;20086;-80
2023/01/27 08:32:09;;;;;;;1.75;1.15;;;;;;;2.33;nan;102662.19;9851395;30;20056;-82
2023/01/27 08:37:11;;;;;;;0.17;0.17;;;;;;;2.40;nan;102662.84;9855191;30;20048;-82
2023/01/27 08:42:12;;;;;;;2.42;1.17;;;;;;;2.42;nan;102656.09;9854525;30;20055;-82
2023/01/27 08:47:14;;;;;;;0.60;0.60;;;;;;;2.46;nan;102659.81;9840204;30;20052;-81
2023/01/27 08:52:16;;;;;;;0.20;0.20;;;;;;;2.53;nan;102668.97;9859667;30;20059;-82
2023/01/27 08:57:17;;;;;;;0.35;0.30;;;;;;;2.58;nan;102672.81;9857865;30;20584;-81
2023/01/27 09:02:21;;;;;;;0.52;0.50;;;;;;;2.61;nan;102665.31;9846369;30;20056;-81
2023/01/27 09:07:22;;;;;;;0.52;0.52;;;;;;;2.64;nan;102683.66;9871526;30;20105;-81
2023/01/27 09:12:24;;;;;;;0.50;0.38;;;;;;;2.67;nan;102691.66;9861286;29;20498;-84
2023/01/27 09:17:26;;;;;;;0.63;0.63;;;;;;;2.74;nan;102685.31;9853402;30;20055;-82
2023/01/27 09:22:28;;;;;;;0.52;0.45;;;;;;;2.74;nan;102699.13;9858700;30;20123;-82
2023/01/27 09:27:29;;;;;;;0.17;0.17;;;;;;;2.69;nan;102691.78;9873929;29;20044;-82
2023/01/27 09:32:41;;;;;;;0.45;0.40;;;;;;;2.66;nan;102697.63;9848707;30;20051;-83
2023/01/27 09:37:55;;;;;;;0.20;0.20;;;;;;;2.67;nan;102708.88;9855753;30;20056;-82
2023/01/27 09:43:02;;;;;;;1.23;0.55;;;;;;;2.63;nan;102702.56;9861807;29;20054;-83
2023/01/27 09:48:22;;;;;;;0.20;0.20;;;;;;;2.72;nan;102703.28;9851991;30;20052;-81
2023/01/27 09:53:42;;;;;;;0.10;0.10;;;;;;;2.83;nan;102711.91;9844276;29;20040;-83
2023/01/27 09:59:10;;;;;;;0.20;0.20;;;;;;;2.89;nan;102709.78;9848799;29;20060;-84
2023/01/27 10:04:37;;;;;;;0.85;0.40;;;;;;;2.83;nan;102711.91;9851669;29;20048;-83
2023/01/27 10:10:03;;;;;;;0.73;0.63;;;;;;;2.71;nan;102704.06;9842790;29;20078;-81
2023/01/27 10:15:31;;;;;;;0.15;0.15;;;;;;;2.69;nan;102708.22;9851868;29;20082;-80
2023/01/27 10:21:07;;;;;;;0.20;0.20;;;;;;;2.72;nan;102702.38;9841532;30;20650;-83
2023/01/27 10:26:35;;;;;;;1.65;1.00;;;;;;;2.72;nan;102699.78;9858015;30;20060;-82
2023/01/27 10:31:45;;;;;;;0.47;0.47;;;;;;;2.83;nan;102698.97;9854517;30;20055;-77
2023/01/27 10:36:53;;;;;;;0.38;0.30;;;;;;;2.88;nan;102705.38;9850099;30;20082;-80
2023/01/27 10:42:15;;;;;;;0.20;0.20;;;;;;;3.01;nan;102708.16;9853844;30;20087;-84
2023/01/27 10:47:34;;;;;;;2.38;0.10;;;;;;;3.01;nan;102700.41;9840087;30;20232;-82
2023/01/27 10:52:38;;;;;;;0.20;0.20;;;;;;;3.05;nan;102708.41;9833045;30;20082;-83
2023/01/27 10:58:02;;;;;;;0.20;0.20;;;;;;;3.09;nan;102705.28;9839063;30;20143;-81
2023/01/27 11:03:22;;;;;;;1.05;0.45;;;;;;;3.10;nan;102709.69;9849766;29;20132;-79
2023/01/27 11:08:33;;;;;;;0.90;0.60;;;;;;;3.06;nan;102705.03;9844296;29;20104;-78
2023/01/27 11:13:34;;;;;;;0.20;0.20;;;;;;;3.07;nan;102707.75;9852060;29;20048;-77
2023/01/27 11:18:37;;;;;;;0.20;0.20;;;;;;;3.11;nan;102703.72;9849728;29;20139;-77
2023/01/27 11:23:43;;;;;;;0.35;0.35;;;;;;;3.07;nan;102702.56;9848851;29;20079;-83
2023/01/27 11:29:05;;;;;;;1.35;0.60;;;;;;;3.07;nan;102702.56;9850926;29;20740;-82
2023/01/27 11:34:39;;;;;;;0.25;0.25;;;;;;;2.85;nan;102694.78;9871140;29;20604;-82
2023/01/27 11:39:40;;;;;;;1.45;0.55;;;;;;;2.80;nan;102694.44;9876327;29;20085;-83
2023/01/27 11:44:44;;;;;;;0.90;0.60;;;;;;;2.86;nan;102698.31;9864687;29;20446;-81
2023/01/27 11:49:48;;;;;;;0.73;0.68;;;;;;;2.97;nan;102682.84;9852147;29;20052;-83
2023/01/27 11:54:54;;;;;;;0.25;0.20;;;;;;;3.01;nan;102681.38;9852105;29;20397;-82
2023/01/27 12:00:02;;;;;;;0.65;0.45;;;;;;;3.06;nan;102684.34;9841310;29;20091;-83
2023/01/27 12:05:13;;;;;;;0.47;0.47;;;;;;;3.17;nan;102686.09;9852007;29;20094;-83
2023/01/27 12:10:20;;;;;;;1.13;0.68;;;;;;;3.10;nan;102673.44;9851715;30;20078;-86
2023/01/27 12:15:26;;;;;;;0.98;0.43;;;;;;;2.88;nan;102678.63;9867364;29;20079;-83
2023/01/27 12:20:38;;;;;;;0.85;0.60;;;;;;;2.89;nan;102673.56;9841159;30;20047;-85
2023/01/27 12:25:44;;;;;;;0.22;0.22;;;;;;;2.83;nan;102678.25;9850768;29;20490;-85
2023/01/27 12:30:51;;;;;;;0.57;0.52;;;;;;;2.87;nan;102672.56;9850360;30;20056;-84
2023/01/27 12:35:59;;;;;;;0.15;0.15;;;;;;;2.91;nan;102669.44;9876189;29;20052;-84
2023/01/27 12:41:07;;;;;;;0.65;0.50;;;;;;;2.87;nan;102666.44;9857190;29;20064;-85
2023/01/27 12:46:11;;;;;;;0.10;0.10;;;;;;;2.83;nan;102667.91;9827602;30;20106;-83
2023/01/27 12:51:21;;;;;;;0.38;0.35;;;;;;;2.79;nan;102674.53;9843931;30;20061;-86
2023/01/27 12:56:23;;;;;;;0.57;0.40;;;;;;;2.77;nan;102670.03;9850122;30;20058;-85
2023/01/27 13:01:36;;;;;;;0.45;0.15;;;;;;;2.74;nan;102668.09;9841658;30;20137;-85
2023/01/27 13:06:47;;;;;;;0.28;0.28;;;;;;;2.78;nan;102666.66;9847361;30;20091;-84
2023/01/27 13:11:48;;;;;;;0.10;0.10;;;;;;;2.71;nan;102669.53;9848965;30;20207;-84
2023/01/27 13:16:57;;;;;;;0.20;0.20;;;;;;;2.71;nan;102660.09;9854484;29;20978;-83
2023/01/27 13:21:59;;;;;;;0.50;0.50;;;;;;;2.75;nan;102667.31;9858897;29;20056;-86
2023/01/27 13:27:10;;;;;;;0.40;0.40;;;;;;;2.65;nan;102675.13;9867161;29;20074;-85
2023/01/27 13:32:23;;;;;;;0.17;0.15;;;;;;;2.68;nan;102675.38;9849760;29;20052;-86
2023/01/27 13:37:45;;;;;;;0.20;0.20;;;;;;;2.67;nan;102673.53;9836582;30;20040;-85
2023/01/27 13:43:01;;;;;;;0.32;0.30;;;;;;;2.65;nan;102676.00;9853781;30;20133;-85
2023/01/27 13:48:07;;;;;;;0.10;0.10;;;;;;;2.63;nan;102682.75;9849688;29;20060;-85
2023/01/27 13:53:16;;;;;;;0.30;0.28;;;;;;;2.67;nan;102676.13;9848072;29;20520;-84
2023/01/27 13:58:46;;;;;;;0.47;0.47;;;;;;;2.64;nan;102681.06;9839942;30;20619;-84
2023/01/27 14:04:17;;;;;;;0.20;0.20;;;;;;;2.64;nan;102676.81;9831256;29;20048;-85
2023/01/27 14:09:22;;;;;;;0.20;0.20;;;;;;;2.66;nan;102682.09;9861172;29;20129;-85
2023/01/27 14:14:41;;;;;;;0.32;0.32;;;;;;;2.64;nan;102684.56;9848983;29;20078;-82
2023/01/27 14:19:57;;;;;;;1.63;0.52;;;;;;;2.66;nan;102682.09;9840132;29;20055;-87
2023/01/27 14:25:23;;;;;;;0.75;0.52;;;;;;;2.64;nan;102673.31;9835950;30;20048;-83
2023/01/27 14:30:29;;;;;;;1.15;0.50;;;;;;;2.65;nan;102681.19;9832247;30;20460;-84
2023/01/27 14:35:41;;;;;;;0.80;0.63;;;;;;;2.64;nan;102668.13;9845098;30;20332;-84
2023/01/27 14:41:17;;;;;;;0.43;0.25;;;;;;;2.65;nan;102676.00;9828963;30;20425;-84
2023/01/27 14:46:46;;;;;;;0.20;0.20;;;;;;;2.73;nan;102670.56;9868550;29;20056;-83
2023/01/27 14:51:54;;;;;;;0.73;0.50;;;;;;;2.71;nan;102685.06;9835784;30;20118;-82
2023/01/27 14:57:19;;;;;;;0.80;0.63;;;;;;;2.68;nan;102684.81;9843566;30;20096;-84
2023/01/27 15:02:45;;;;;;;1.85;0.85;;;;;;;2.63;nan;102685.34;9863050;29;20121;-84
2023/01/27 15:07:56;;;;;;;0.75;0.50;;;;;;;2.59;nan;102691.03;9851344;30;20061;-84
2023/01/27 15:12:58;;;;;;;0.55;0.47;;;;;;;2.58;nan;102689.25;9852726;29;20079;-84
2023/01/27 15:18:08;;;;;;;0.45;0.43;;;;;;;2.54;nan;102684.63;9844875;29;20554;-83
2023/01/27 15:23:34;;;;;;;0.40;0.40;;;;;;;2.52;nan;102695.59;9847229;29;20060;-83
2023/01/27 15:28:40;;;;;;;0.95;0.73;;;;;;;2.46;nan;102691.75;9842520;29;20059;-83
2023/01/27 15:34:17;;;;;;;1.75;1.00;;;;;;;2.43;nan;102700.94;9826090;30;20087;-83
2023/01/27 15:39:19;;;;;;;2.53;0.80;;;;;;;2.37;nan;102695.28;9845603;29;20158;-83
2023/01/27 15:44:31;;;;;;;1.25;0.75;;;;;;;2.34;nan;102706.25;9851203;29;20055;-82
2023/01/27 15:49:45;;;;;;;0.45;0.45;;;;;;;2.32;nan;102709.53;9860288;29;20077;-84
2023/01/27 15:54:50;;;;;;;0.73;0.68;;;;;;;2.30;nan;102712.00;9850768;29;20048;-83
2023/01/27 15:59:57;;;;;;;0.60;0.60;;;;;;;2.27;nan;102712.63;9863277;29;20072;-83
2023/01/27 16:05:15;;;;;;;0.80;0.70;;;;;;;2.21;nan;102726.75;9828845;29;20052;-83
2023/01/27 16:10:20;;;;;;;0.10;0.10;;;;;;;2.17;nan;102719.50;9843343;30;20056;-81
2023/01/27 16:15:32;;;;;;;0.47;0.43;;;;;;;2.19;nan;102726.63;9855234;30;20066;-84
2023/01/27 16:20:49;;;;;;;0.50;0.50;;;;;;;2.10;nan;102731.00;9851055;30;20579;-83
2023/01/27 16:26:08;;;;;;;1.45;0.60;;;;;;;2.00;nan;102736.19;9846338;30;20061;-84
2023/01/27 16:31:16;;;;;;;0.35;0.22;;;;;;;2.00;nan;102741.34;9860428;30;20091;-83
2023/01/27 16:36:23;;;;;;;1.05;0.77;;;;;;;1.94;nan;102747.84;9854598;30;20139;-82
2023/01/27 16:41:31;;;;;;;0.40;0.40;;;;;;;1.86;nan;102754.06;9849405;30;20063;-85
2023/01/27 16:46:40;;;;;;;0.40;0.40;;;;;;;1.79;nan;102756.88;9843323;30;20064;-85
2023/01/27 16:51:42;;;;;;;1.15;0.50;;;;;;;1.79;nan;102762.06;9857265;29;20060;-84
2023/01/27 16:56:48;;;;;;;1.30;0.65;;;;;;;1.77;nan;102764.50;9848853;30;20147;-85
2023/01/27 17:01:58;;;;;;;0.47;0.38;;;;;;;1.68;nan;102767.97;9860849;30;20425;-83
2023/01/27 17:07:06;;;;;;;1.45;0.80;;;;;;;1.65;nan;102768.66;9854819;29;20058;-85
2023/01/27 17:12:38;;;;;;;0.43;0.43;;;;;;;1.56;nan;102768.75;9840549;30;20052;-85
2023/01/27 17:17:41;;;;;;;0.50;0.50;;;;;;;1.59;nan;102781.94;9859540;30;20071;-86
2023/01/27 17:22:51;;;;;;;0.90;0.57;;;;;;;1.64;nan;102789.19;9851042;30;20068;-84
2023/01/27 17:27:54;;;;;;;0.30;0.30;;;;;;;1.57;nan;102787.72;9855504;29;20612;-84
2023/01/27 17:32:59;;;;;;;0.30;0.30;;;;;;;1.54;nan;102796.09;9853491;29;20428;-83
2023/01/27 17:38:23;;;;;;;0.20;0.20;;;;;;;1.41;nan;102812.25;9827647;29;20060;-84
2023/01/27 17:43:33;;;;;;;0.20;0.20;;;;;;;1.37;nan;102814.44;9848352;29;20052;-84
2023/01/27 17:48:39;;;;;;;4.05;1.13;;;;;;;1.31;nan;102816.47;9858909;29;20092;-83
2023/01/27 17:53:41;;;;;;;0.65;0.57;;;;;;;1.32;nan;102813.09;9845448;29;20536;-83
2023/01/27 17:58:45;;;;;;;1.70;0.73;;;;;;;1.30;nan;102815.56;9868044;29;20056;-85
2023/01/27 18:03:51;;;;;;;0.70;0.70;;;;;;;1.30;nan;102812.06;9855063;29;20055;-83
2023/01/27 18:08:58;;;;;;;0.30;0.30;;;;;;;1.28;nan;102813.63;9854574;29;20125;-85
2023/01/27 18:14:07;;;;;;;0.70;0.57;;;;;;;1.30;nan;102819.81;9867051;29;20134;-85
2023/01/27 18:19:21;;;;;;;0.83;0.47;;;;;;;1.24;nan;102809.84;9868194;29;20533;-85
2023/01/27 18:24:23;;;;;;;0.68;0.40;;;;;;;1.26;nan;102810.00;9845757;30;20055;-85
2023/01/27 18:29:32;;;;;;;0.63;0.63;;;;;;;1.20;nan;102819.03;9840688;29;20063;-83
2023/01/27 18:34:45;;;;;;;1.10;0.80;;;;;;;1.23;nan;102810.63;9845331;29;20147;-83
2023/01/27 18:39:47;;;;;;;0.75;0.45;;;;;;;1.27;nan;102816.97;9863571;29;20062;-82
2023/01/27 18:44:50;;;;;;;0.30;0.30;;;;;;;1.27;nan;102829.88;9858794;29;20280;-84
2023/01/27 18:49:54;;;;;;;0.55;0.50;;;;;;;1.26;nan;102831.53;9872704;29;20052;-81
2023/01/27 18:55:05;;;;;;;1.85;1.05;;;;;;;1.26;nan;102822.91;9870309;29;20604;-84
2023/01/27 19:00:09;;;;;;;0.90;0.50;;;;;;;1.28;nan;102842.03;9861873;30;20771;-84
2023/01/27 19:05:28;;;;;;;0.30;0.30;;;;;;;1.29;nan;102844.72;9890943;29;20399;-82
2023/01/27 19:10:32;;;;;;;0.35;0.35;;;;;;;1.22;nan;102843.28;9868997;30;20107;-84
2023/01/27 19:15:42;;;;;;;0.95;0.55;;;;;;;1.11;nan;102837.94;9865802;30;20056;-84
2023/01/27 19:20:45;;;;;;;0.30;0.30;;;;;;;1.01;nan;102838.81;9840976;30;20052;-84
2023/01/27 19:25:51;;;;;;;0.65;0.40;;;;;;;0.97;nan;102840.19;9870371;30;20039;-84
2023/01/27 19:30:53;;;;;;;0.45;0.45;;;;;;;0.94;nan;102841.63;9862760;30;20069;-84
2023/01/27 19:35:56;;;;;;;1.42;0.82;;;;;;;0.99;nan;102848.06;9855357;30;20051;-85
2023/01/27 19:40:58;;;;;;;0.17;0.13;;;;;;;0.95;nan;102851.16;9836106;30;20362;-84
2023/01/27 19:46:00;;;;;;;0.68;0.25;;;;;;;0.95;nan;102857.22;9857330;30;20147;-83
2023/01/27 19:51:02;;;;;;;0.28;0.28;;;;;;;0.89;nan;102859.25;9868998;30;20059;-84
2023/01/27 19:56:15;;;;;;;0.45;0.43;;;;;;;0.89;nan;102869.56;9867166;30;20048;-86
2023/01/27 20:01:19;;;;;;;0.35;0.25;;;;;;;0.90;nan;102862.72;9871717;29;20052;-82
2023/01/27 20:06:23;;;;;;;0.90;0.65;;;;;;;0.88;nan;102862.59;9865044;30;20506;-85
2023/01/27 20:11:31;;;;;;;0.70;0.50;;;;;;;0.87;nan;102859.13;9848342;30;20056;-86
2023/01/27 20:16:33;;;;;;;3.03;1.38;;;;;;;0.84;nan;102857.91;9848623;30;20055;-84
2023/01/27 20:21:35;;;;;;;1.13;0.63;;;;;;;0.82;nan;102856.88;9879560;29;20151;-83
2023/01/27 20:26:36;;;;;;;1.75;0.75;;;;;;;0.81;nan;102853.41;9873051;29;20422;-81
2023/01/27 20:31:38;;;;;;;0.50;0.38;;;;;;;0.82;nan;102838.84;9840077;30;20052;-81
2023/01/27 20:36:40;;;;;;;0.65;0.65;;;;;;;0.79;nan;102842.03;9863049;30;20237;-81
2023/01/27 20:41:41;;;;;;;0.47;0.47;;;;;;;0.75;nan;102831.31;9856776;30;20086;-82
2023/01/27 20:46:43;;;;;;;0.38;0.38;;;;;;;0.72;nan;102824.19;9856109;30;20056;-80
2023/01/27 20:51:45;;;;;;;0.55;0.30;;;;;;;0.69;nan;102821.34;9856412;30;20056;-80
2023/01/27 20:56:46;;;;;;;0.80;0.57;;;;;;;0.62;nan;102829.31;9842902;30;20099;-80
2023/01/27 21:01:48;;;;;;;0.95;0.77;;;;;;;0.59;nan;102818.75;9862062;29;20068;-81
2023/01/27 21:06:50;;;;;;;0.82;0.68;;;;;;;0.51;nan;102830.91;9889785;29;20048;-81
2023/01/27 21:11:51;;;;;;;2.00;1.08;;;;;;;0.46;nan;102822.75;9866115;30;20066;-81
2023/01/27 21:16:53;;;;;;;4.45;1.20;;;;;;;0.50;nan;102829.13;9860165;30;20051;-81
2023/01/27 21:21:55;;;;;;;0.40;0.40;;;;;;;0.47;nan;102834.88;9860909;30;20417;-82
2023/01/27 21:26:56;;;;;;;1.85;0.85;;;;;;;0.43;nan;102830.22;9862420;30;20417;-81
2023/01/27 21:31:58;;;;;;;1.15;0.80;;;;;;;0.44;nan;102832.03;9853788;30;20055;-81
2023/01/27 21:36:59;;;;;;;1.27;0.73;;;;;;;0.42;nan;102833.59;9857410;30;20056;-82
2023/01/27 21:47:05;;;;;;;0.40;0.40;;;;;;;0.35;nan;102819.22;9849943;30;20044;-82
2023/01/27 21:52:06;;;;;;;1.17;0.85;;;;;;;0.33;nan;102831.06;9851724;30;20071;-82
2023/01/27 21:57:08;;;;;;;0.77;0.57;;;;;;;0.33;nan;102819.81;9839092;30;20044;-81
2023/01/27 22:02:14;;;;;;;1.02;0.50;;;;;;;0.35;nan;102832.09;9866885;30;20073;-82
2023/01/27 22:07:18;;;;;;;0.73;0.68;;;;;;;0.31;nan;102817.13;9851421;30;20131;-81
2023/01/27 22:12:21;;;;;;;0.28;0.17;;;;;;;0.33;nan;102815.59;9857618;30;20056;-82
2023/01/27 22:17:23;;;;;;;0.90;0.55;;;;;;;0.32;nan;102824.09;9859269;30;20314;-81
2023/01/27 22:22:24;;;;;;;0.35;0.35;;;;;;;0.33;nan;102822.41;9851621;30;20055;-80
2023/01/27 22:27:26;;;;;;;0.47;0.40;;;;;;;0.33;nan;102814.69;9839848;30;20048;-81
2023/01/27 22:32:27;;;;;;;1.70;0.90;;;;;;;0.28;nan;102821.09;9867598;29;20055;-80
2023/01/27 22:37:29;;;;;;;0.65;0.63;;;;;;;0.22;nan;102817.97;9862275;30;20052;-81
2023/01/27 22:42:31;;;;;;;1.15;1.05;;;;;;;0.16;nan;102826.91;9862273;30;20315;-82
2023/01/27 22:47:33;;;;;;;0.80;0.60;;;;;;;0.14;nan;102822.41;9854369;30;20043;-81
2023/01/27 22:52:35;;;;;;;0.75;0.70;;;;;;;0.17;nan;102820.13;9861497;30;20482;-82
2023/01/27 22:57:37;;;;;;;0.65;0.52;;;;;;;0.16;nan;102819.19;9863969;30;20078;-80
2023/01/27 23:02:39;;;;;;;0.45;0.45;;;;;;;0.14;nan;102818.16;9865006;30;20059;-81
2023/01/27 23:07:40;;;;;;;0.88;0.63;;;;;;;0.13;nan;102816.34;9859890;30;20509;-81
2023/01/27 23:12:42;;;;;;;2.17;1.00;;;;;;;0.14;nan;102823.31;9852629;30;20490;-81
2023/01/27 23:17:46;;;;;;;0.22;0.22;;;;;;;0.07;nan;102826.09;9863918;29;20055;-80
2023/01/27 23:22:47;;;;;;;0.43;0.43;;;;;;;0.10;nan;102828.03;9848225;29;20063;-81
2023/01/27 23:27:49;;;;;;;0.80;0.60;;;;;;;0.12;nan;102832.59;9836356;29;20049;-81
2023/01/27 23:32:53;;;;;;;0.65;0.40;;;;;;;0.12;nan;102817.13;9861118;29;20055;-80
2023/01/27 23:37:55;;;;;;;7.22;2.03;;;;;;;0.13;nan;102821.50;9842566;29;20135;-81
2023/01/27 23:42:59;;;;;;;0.75;0.75;;;;;;;0.10;nan;102816.06;9855121;29;20075;-80
2023/01/27 23:48:01;;;;;;;2.42;1.35;;;;;;;0.08;nan;102817.59;9833797;29;20055;-80
2023/01/27 23:53:04;;;;;;;1.63;0.82;;;;;;;0.08;nan;102811.56;9852862;29;20438;-80
2023/01/27 23:58:07;;;;;;;0.70;0.63;;;;;;;0.07;nan;102827.75;9858002;29;20152;-81
